sensor_id;sensor_type;location;lat;lon;timestamp;P1;durP1;ratioP1;P2;durP2;ratioP2
47764;SDS011;33529;49.242;8.670;2023-04-24T00:01:57;1.33;;;0.50;;
47764;SDS011;33529;49.242;8.670;2023-04-24T00:04:24;0.95;;;0.40;;
47764;SDS011;33529;49.242;8.670;2023-04-24T00:06:52;2.55;;;0.70;;
47764;SDS011;33529;49.242;8.670;2023-04-24T00:09:23;0.65;;;0.50;;
47764;SDS011;33529;49.242;8.670;2023-04-24T00:11:50;0.93;;;0.50;;
47764;SDS011;33529;49.242;8.670;2023-04-24T00:14:17;1.33;;;0.50;;
47764;SDS011;33529;49.242;8.670;2023-04-24T00:16:43;0.60;;;0.40;;
47764;SDS011;33529;49.242;8.670;2023-04-24T00:19:11;1.60;;;0.57;;
47764;SDS011;33529;49.242;8.670;2023-04-24T00:21:39;2.10;;;0.40;;
47764;SDS011;33529;49.242;8.670;2023-04-24T00:24:07;1.42;;;0.65;;
47764;SDS011;33529;49.242;8.670;2023-04-24T00:26:35;0.57;;;0.43;;
47764;SDS011;33529;49.242;8.670;2023-04-24T00:29:02;0.90;;;0.47;;
47764;SDS011;33529;49.242;8.670;2023-04-24T00:31:28;1.45;;;0.70;;
47764;SDS011;33529;49.242;8.670;2023-04-24T00:33:55;0.80;;;0.57;;
47764;SDS011;33529;49.242;8.670;2023-04-24T00:36:24;1.58;;;0.82;;
47764;SDS011;33529;49.242;8.670;2023-04-24T00:38:51;0.75;;;0.50;;
47764;SDS011;33529;49.242;8.670;2023-04-24T00:41:18;1.75;;;0.65;;
47764;SDS011;33529;49.242;8.670;2023-04-24T00:43:45;0.75;;;0.50;;
47764;SDS011;33529;49.242;8.670;2023-04-24T00:46:12;0.80;;;0.50;;
47764;SDS011;33529;49.242;8.670;2023-04-24T00:48:39;0.93;;;0.43;;
47764;SDS011;33529;49.242;8.670;2023-04-24T00:51:07;0.40;;;0.40;;
47764;SDS011;33529;49.242;8.670;2023-04-24T00:53:36;1.17;;;0.52;;
47764;SDS011;33529;49.242;8.670;2023-04-24T00:56:03;1.23;;;0.50;;
47764;SDS011;33529;49.242;8.670;2023-04-24T00:58:31;0.93;;;0.40;;
47764;SDS011;33529;49.242;8.670;2023-04-24T01:00:58;1.20;;;0.50;;
47764;SDS011;33529;49.242;8.670;2023-04-24T01:03:28;1.00;;;0.52;;
47764;SDS011;33529;49.242;8.670;2023-04-24T01:05:58;0.85;;;0.52;;
47764;SDS011;33529;49.242;8.670;2023-04-24T01:08:24;0.75;;;0.43;;
47764;SDS011;33529;49.242;8.670;2023-04-24T01:10:55;1.47;;;0.50;;
47764;SDS011;33529;49.242;8.670;2023-04-24T01:13:23;0.82;;;0.40;;
47764;SDS011;33529;49.242;8.670;2023-04-24T01:15:50;1.35;;;0.50;;
47764;SDS011;33529;49.242;8.670;2023-04-24T01:18:17;0.50;;;0.30;;
47764;SDS011;33529;49.242;8.670;2023-04-24T01:20:44;2.60;;;0.40;;
47764;SDS011;33529;49.242;8.670;2023-04-24T01:23:12;0.43;;;0.35;;
47764;SDS011;33529;49.242;8.670;2023-04-24T01:25:40;2.45;;;0.60;;
47764;SDS011;33529;49.242;8.670;2023-04-24T01:28:07;0.93;;;0.55;;
47764;SDS011;33529;49.242;8.670;2023-04-24T01:30:33;1.23;;;0.50;;
47764;SDS011;33529;49.242;8.670;2023-04-24T01:33:00;1.42;;;0.50;;
47764;SDS011;33529;49.242;8.670;2023-04-24T01:35:27;1.35;;;0.65;;
47764;SDS011;33529;49.242;8.670;2023-04-24T01:37:54;0.68;;;0.45;;
47764;SDS011;33529;49.242;8.670;2023-04-24T01:40:21;0.77;;;0.50;;
47764;SDS011;33529;49.242;8.670;2023-04-24T01:42:48;1.05;;;0.35;;
47764;SDS011;33529;49.242;8.670;2023-04-24T01:45:15;1.75;;;0.70;;
47764;SDS011;33529;49.242;8.670;2023-04-24T01:47:41;1.00;;;0.50;;
47764;SDS011;33529;49.242;8.670;2023-04-24T01:50:09;2.03;;;0.40;;
47764;SDS011;33529;49.242;8.670;2023-04-24T01:52:38;1.20;;;0.50;;
47764;SDS011;33529;49.242;8.670;2023-04-24T01:55:05;2.78;;;0.55;;
47764;SDS011;33529;49.242;8.670;2023-04-24T01:57:33;0.93;;;0.52;;
47764;SDS011;33529;49.242;8.670;2023-04-24T02:00:00;3.25;;;0.50;;
47764;SDS011;33529;49.242;8.670;2023-04-24T02:02:39;0.47;;;0.38;;
47764;SDS011;33529;49.242;8.670;2023-04-24T02:05:07;1.33;;;0.50;;
47764;SDS011;33529;49.242;8.670;2023-04-24T02:07:35;1.00;;;0.40;;
47764;SDS011;33529;49.242;8.670;2023-04-24T02:10:02;0.75;;;0.40;;
47764;SDS011;33529;49.242;8.670;2023-04-24T02:12:30;0.80;;;0.40;;
47764;SDS011;33529;49.242;8.670;2023-04-24T02:14:57;1.20;;;0.60;;
47764;SDS011;33529;49.242;8.670;2023-04-24T02:17:24;0.85;;;0.52;;
47764;SDS011;33529;49.242;8.670;2023-04-24T02:19:51;0.95;;;0.60;;
47764;SDS011;33529;49.242;8.670;2023-04-24T02:22:18;1.15;;;0.52;;
47764;SDS011;33529;49.242;8.670;2023-04-24T02:24:45;0.70;;;0.50;;
47764;SDS011;33529;49.242;8.670;2023-04-24T02:27:14;1.17;;;0.60;;
47764;SDS011;33529;49.242;8.670;2023-04-24T02:29:41;1.42;;;0.57;;
47764;SDS011;33529;49.242;8.670;2023-04-24T02:32:08;0.52;;;0.30;;
47764;SDS011;33529;49.242;8.670;2023-04-24T02:34:38;1.00;;;0.52;;
47764;SDS011;33529;49.242;8.670;2023-04-24T02:37:05;0.55;;;0.47;;
47764;SDS011;33529;49.242;8.670;2023-04-24T02:39:32;1.88;;;0.60;;
47764;SDS011;33529;49.242;8.670;2023-04-24T02:41:58;1.23;;;0.60;;
47764;SDS011;33529;49.242;8.670;2023-04-24T02:44:26;1.23;;;0.60;;
47764;SDS011;33529;49.242;8.670;2023-04-24T02:46:53;0.50;;;0.40;;
47764;SDS011;33529;49.242;8.670;2023-04-24T02:49:19;0.88;;;0.50;;
47764;SDS011;33529;49.242;8.670;2023-04-24T02:51:46;1.27;;;0.50;;
47764;SDS011;33529;49.242;8.670;2023-04-24T02:54:13;1.42;;;0.45;;
47764;SDS011;33529;49.242;8.670;2023-04-24T02:56:40;1.10;;;0.40;;
47764;SDS011;33529;49.242;8.670;2023-04-24T02:59:07;1.17;;;0.60;;
47764;SDS011;33529;49.242;8.670;2023-04-24T03:01:34;1.13;;;0.47;;
47764;SDS011;33529;49.242;8.670;2023-04-24T03:04:04;1.27;;;0.52;;
47764;SDS011;33529;49.242;8.670;2023-04-24T03:06:31;1.45;;;0.68;;
47764;SDS011;33529;49.242;8.670;2023-04-24T03:08:59;1.02;;;0.50;;
47764;SDS011;33529;49.242;8.670;2023-04-24T03:11:25;0.75;;;0.32;;
47764;SDS011;33529;49.242;8.670;2023-04-24T03:13:52;1.50;;;0.52;;
47764;SDS011;33529;49.242;8.670;2023-04-24T03:16:19;1.70;;;0.70;;
47764;SDS011;33529;49.242;8.670;2023-04-24T03:18:46;0.82;;;0.52;;
47764;SDS011;33529;49.242;8.670;2023-04-24T03:21:13;0.68;;;0.50;;
47764;SDS011;33529;49.242;8.670;2023-04-24T03:23:42;1.90;;;0.90;;
47764;SDS011;33529;49.242;8.670;2023-04-24T03:26:09;0.88;;;0.60;;
47764;SDS011;33529;49.242;8.670;2023-04-24T03:28:45;0.88;;;0.63;;
47764;SDS011;33529;49.242;8.670;2023-04-24T03:31:11;2.15;;;1.00;;
47764;SDS011;33529;49.242;8.670;2023-04-24T03:33:38;1.67;;;0.90;;
47764;SDS011;33529;49.242;8.670;2023-04-24T03:36:06;1.88;;;1.00;;
47764;SDS011;33529;49.242;8.670;2023-04-24T03:38:37;2.00;;;0.90;;
47764;SDS011;33529;49.242;8.670;2023-04-24T03:41:24;2.00;;;1.05;;
47764;SDS011;33529;49.242;8.670;2023-04-24T03:44:03;2.00;;;0.90;;
47764;SDS011;33529;49.242;8.670;2023-04-24T03:46:30;1.80;;;1.13;;
47764;SDS011;33529;49.242;8.670;2023-04-24T03:48:59;2.50;;;1.25;;
47764;SDS011;33529;49.242;8.670;2023-04-24T03:51:31;1.63;;;1.02;;
47764;SDS011;33529;49.242;8.670;2023-04-24T03:54:08;3.33;;;1.10;;
47764;SDS011;33529;49.242;8.670;2023-04-24T03:56:37;4.03;;;1.40;;
47764;SDS011;33529;49.242;8.670;2023-04-24T03:59:04;1.67;;;1.15;;
47764;SDS011;33529;49.242;8.670;2023-04-24T04:01:32;2.28;;;1.02;;
47764;SDS011;33529;49.242;8.670;2023-04-24T04:04:11;2.72;;;1.38;;
47764;SDS011;33529;49.242;8.670;2023-04-24T04:06:39;2.60;;;1.13;;
47764;SDS011;33529;49.242;8.670;2023-04-24T04:09:06;2.55;;;1.27;;
47764;SDS011;33529;49.242;8.670;2023-04-24T04:11:34;1.77;;;1.00;;
47764;SDS011;33529;49.242;8.670;2023-04-24T04:14:04;2.05;;;1.02;;
47764;SDS011;33529;49.242;8.670;2023-04-24T04:16:37;1.98;;;1.20;;
47764;SDS011;33529;49.242;8.670;2023-04-24T04:19:05;2.88;;;1.27;;
47764;SDS011;33529;49.242;8.670;2023-04-24T04:21:32;2.78;;;1.30;;
47764;SDS011;33529;49.242;8.670;2023-04-24T04:24:12;3.80;;;1.42;;
47764;SDS011;33529;49.242;8.670;2023-04-24T04:26:42;3.33;;;1.75;;
47764;SDS011;33529;49.242;8.670;2023-04-24T04:29:22;4.18;;;1.63;;
47764;SDS011;33529;49.242;8.670;2023-04-24T04:31:49;1.35;;;1.08;;
47764;SDS011;33529;49.242;8.670;2023-04-24T04:34:17;2.00;;;1.30;;
47764;SDS011;33529;49.242;8.670;2023-04-24T04:36:44;1.75;;;1.02;;
47764;SDS011;33529;49.242;8.670;2023-04-24T04:39:24;3.35;;;1.25;;
47764;SDS011;33529;49.242;8.670;2023-04-24T04:42:11;2.25;;;1.33;;
47764;SDS011;33529;49.242;8.670;2023-04-24T04:44:40;2.55;;;1.50;;
47764;SDS011;33529;49.242;8.670;2023-04-24T04:47:10;3.92;;;1.88;;
47764;SDS011;33529;49.242;8.670;2023-04-24T04:49:38;3.78;;;1.27;;
47764;SDS011;33529;49.242;8.670;2023-04-24T04:52:11;2.33;;;1.42;;
47764;SDS011;33529;49.242;8.670;2023-04-24T04:54:38;4.85;;;1.58;;
47764;SDS011;33529;49.242;8.670;2023-04-24T04:57:05;2.60;;;1.48;;
47764;SDS011;33529;49.242;8.670;2023-04-24T04:59:34;3.17;;;1.38;;
47764;SDS011;33529;49.242;8.670;2023-04-24T05:02:08;2.70;;;1.40;;
47764;SDS011;33529;49.242;8.670;2023-04-24T05:04:36;2.53;;;1.33;;
47764;SDS011;33529;49.242;8.670;2023-04-24T05:07:03;2.78;;;1.35;;
47764;SDS011;33529;49.242;8.670;2023-04-24T05:09:32;2.47;;;1.30;;
47764;SDS011;33529;49.242;8.670;2023-04-24T05:12:02;3.72;;;1.80;;
47764;SDS011;33529;49.242;8.670;2023-04-24T05:14:34;2.58;;;1.45;;
47764;SDS011;33529;49.242;8.670;2023-04-24T05:17:01;2.60;;;1.60;;
47764;SDS011;33529;49.242;8.670;2023-04-24T05:19:29;3.03;;;1.85;;
47764;SDS011;33529;49.242;8.670;2023-04-24T05:21:59;3.03;;;1.75;;
47764;SDS011;33529;49.242;8.670;2023-04-24T05:24:29;2.90;;;1.35;;
47764;SDS011;33529;49.242;8.670;2023-04-24T05:27:07;2.53;;;1.30;;
47764;SDS011;33529;49.242;8.670;2023-04-24T05:29:38;3.05;;;2.08;;
47764;SDS011;33529;49.242;8.670;2023-04-24T05:32:07;3.60;;;1.95;;
47764;SDS011;33529;49.242;8.670;2023-04-24T05:34:34;3.08;;;1.52;;
47764;SDS011;33529;49.242;8.670;2023-04-24T05:37:01;2.65;;;1.85;;
47764;SDS011;33529;49.242;8.670;2023-04-24T05:39:29;2.78;;;1.42;;
47764;SDS011;33529;49.242;8.670;2023-04-24T05:41:56;2.85;;;1.73;;
47764;SDS011;33529;49.242;8.670;2023-04-24T05:44:24;3.22;;;1.90;;
47764;SDS011;33529;49.242;8.670;2023-04-24T05:46:51;3.30;;;1.70;;
47764;SDS011;33529;49.242;8.670;2023-04-24T05:49:19;2.72;;;1.58;;
47764;SDS011;33529;49.242;8.670;2023-04-24T05:51:46;3.13;;;2.00;;
47764;SDS011;33529;49.242;8.670;2023-04-24T05:54:14;2.65;;;1.40;;
47764;SDS011;33529;49.242;8.670;2023-04-24T05:56:42;2.90;;;1.70;;
47764;SDS011;33529;49.242;8.670;2023-04-24T05:59:13;2.88;;;1.60;;
47764;SDS011;33529;49.242;8.670;2023-04-24T06:01:40;3.55;;;1.60;;
47764;SDS011;33529;49.242;8.670;2023-04-24T06:04:14;3.20;;;1.75;;
47764;SDS011;33529;49.242;8.670;2023-04-24T06:06:42;4.95;;;1.67;;
47764;SDS011;33529;49.242;8.670;2023-04-24T06:09:09;3.45;;;1.55;;
47764;SDS011;33529;49.242;8.670;2023-04-24T06:11:36;2.95;;;1.50;;
47764;SDS011;33529;49.242;8.670;2023-04-24T06:14:03;3.08;;;1.67;;
47764;SDS011;33529;49.242;8.670;2023-04-24T06:16:36;3.00;;;1.80;;
47764;SDS011;33529;49.242;8.670;2023-04-24T06:19:14;3.42;;;1.58;;
47764;SDS011;33529;49.242;8.670;2023-04-24T06:21:41;4.03;;;1.88;;
47764;SDS011;33529;49.242;8.670;2023-04-24T06:24:08;2.17;;;1.45;;
47764;SDS011;33529;49.242;8.670;2023-04-24T06:26:35;2.53;;;1.50;;
47764;SDS011;33529;49.242;8.670;2023-04-24T06:29:02;2.92;;;1.58;;
47764;SDS011;33529;49.242;8.670;2023-04-24T06:31:29;3.55;;;2.20;;
47764;SDS011;33529;49.242;8.670;2023-04-24T06:33:56;2.90;;;1.63;;
47764;SDS011;33529;49.242;8.670;2023-04-24T06:36:23;3.58;;;1.90;;
47764;SDS011;33529;49.242;8.670;2023-04-24T06:38:49;3.50;;;1.77;;
47764;SDS011;33529;49.242;8.670;2023-04-24T06:41:16;2.88;;;1.70;;
47764;SDS011;33529;49.242;8.670;2023-04-24T06:43:45;2.92;;;1.60;;
47764;SDS011;33529;49.242;8.670;2023-04-24T06:46:12;2.55;;;1.38;;
47764;SDS011;33529;49.242;8.670;2023-04-24T06:48:39;1.85;;;1.25;;
47764;SDS011;33529;49.242;8.670;2023-04-24T06:51:06;2.50;;;1.60;;
47764;SDS011;33529;49.242;8.670;2023-04-24T06:53:32;2.25;;;1.23;;
47764;SDS011;33529;49.242;8.670;2023-04-24T06:55:59;3.38;;;1.40;;
47764;SDS011;33529;49.242;8.670;2023-04-24T06:58:26;4.07;;;1.70;;
47764;SDS011;33529;49.242;8.670;2023-04-24T07:00:53;2.17;;;1.38;;
47764;SDS011;33529;49.242;8.670;2023-04-24T07:03:20;2.20;;;1.25;;
47764;SDS011;33529;49.242;8.670;2023-04-24T07:05:47;3.00;;;1.33;;
47764;SDS011;33529;49.242;8.670;2023-04-24T07:08:15;2.70;;;1.77;;
47764;SDS011;33529;49.242;8.670;2023-04-24T07:10:44;2.92;;;1.17;;
47764;SDS011;33529;49.242;8.670;2023-04-24T07:13:11;2.38;;;1.10;;
47764;SDS011;33529;49.242;8.670;2023-04-24T07:15:38;1.65;;;1.05;;
47764;SDS011;33529;49.242;8.670;2023-04-24T07:18:06;2.28;;;1.48;;
47764;SDS011;33529;49.242;8.670;2023-04-24T07:20:33;2.35;;;1.02;;
47764;SDS011;33529;49.242;8.670;2023-04-24T07:23:00;2.45;;;1.20;;
47764;SDS011;33529;49.242;8.670;2023-04-24T07:25:27;2.25;;;1.38;;
47764;SDS011;33529;49.242;8.670;2023-04-24T07:27:53;1.30;;;0.82;;
47764;SDS011;33529;49.242;8.670;2023-04-24T07:30:20;2.55;;;1.40;;
47764;SDS011;33529;49.242;8.670;2023-04-24T07:32:47;1.92;;;1.00;;
47764;SDS011;33529;49.242;8.670;2023-04-24T07:35:14;1.38;;;0.88;;
47764;SDS011;33529;49.242;8.670;2023-04-24T07:37:41;1.13;;;0.60;;
47764;SDS011;33529;49.242;8.670;2023-04-24T07:40:12;1.60;;;1.00;;
47764;SDS011;33529;49.242;8.670;2023-04-24T07:42:39;1.02;;;0.85;;
47764;SDS011;33529;49.242;8.670;2023-04-24T07:45:06;1.13;;;0.75;;
47764;SDS011;33529;49.242;8.670;2023-04-24T07:47:34;1.95;;;1.00;;
47764;SDS011;33529;49.242;8.670;2023-04-24T07:50:03;1.52;;;0.95;;
47764;SDS011;33529;49.242;8.670;2023-04-24T07:52:30;1.20;;;0.80;;
47764;SDS011;33529;49.242;8.670;2023-04-24T07:54:56;1.48;;;1.00;;
47764;SDS011;33529;49.242;8.670;2023-04-24T07:57:28;2.15;;;1.08;;
47764;SDS011;33529;49.242;8.670;2023-04-24T07:59:55;1.38;;;0.90;;
47764;SDS011;33529;49.242;8.670;2023-04-24T08:02:22;2.40;;;1.05;;
47764;SDS011;33529;49.242;8.670;2023-04-24T08:04:52;1.40;;;0.98;;
47764;SDS011;33529;49.242;8.670;2023-04-24T08:07:25;2.03;;;1.13;;
47764;SDS011;33529;49.242;8.670;2023-04-24T08:09:54;1.55;;;1.10;;
47764;SDS011;33529;49.242;8.670;2023-04-24T08:12:21;2.33;;;1.10;;
47764;SDS011;33529;49.242;8.670;2023-04-24T08:14:47;2.97;;;1.23;;
47764;SDS011;33529;49.242;8.670;2023-04-24T08:17:14;2.95;;;1.38;;
47764;SDS011;33529;49.242;8.670;2023-04-24T08:19:43;1.75;;;1.00;;
47764;SDS011;33529;49.242;8.670;2023-04-24T08:22:14;2.25;;;1.25;;
47764;SDS011;33529;49.242;8.670;2023-04-24T08:24:41;2.30;;;1.20;;
47764;SDS011;33529;49.242;8.670;2023-04-24T08:27:08;2.25;;;1.20;;
47764;SDS011;33529;49.242;8.670;2023-04-24T08:29:36;2.45;;;1.10;;
47764;SDS011;33529;49.242;8.670;2023-04-24T08:32:03;2.28;;;1.17;;
47764;SDS011;33529;49.242;8.670;2023-04-24T08:34:30;2.05;;;1.10;;
47764;SDS011;33529;49.242;8.670;2023-04-24T08:36:56;1.63;;;0.98;;
47764;SDS011;33529;49.242;8.670;2023-04-24T08:39:23;1.55;;;0.90;;
47764;SDS011;33529;49.242;8.670;2023-04-24T08:41:50;2.17;;;1.00;;
47764;SDS011;33529;49.242;8.670;2023-04-24T08:44:18;2.15;;;1.20;;
47764;SDS011;33529;49.242;8.670;2023-04-24T08:46:46;2.25;;;1.25;;
47764;SDS011;33529;49.242;8.670;2023-04-24T08:49:15;3.08;;;1.10;;
47764;SDS011;33529;49.242;8.670;2023-04-24T08:51:45;1.80;;;1.13;;
47764;SDS011;33529;49.242;8.670;2023-04-24T08:54:13;1.85;;;1.08;;
47764;SDS011;33529;49.242;8.670;2023-04-24T08:56:40;2.00;;;1.00;;
47764;SDS011;33529;49.242;8.670;2023-04-24T08:59:10;2.80;;;0.95;;
47764;SDS011;33529;49.242;8.670;2023-04-24T09:01:37;1.70;;;0.88;;
47764;SDS011;33529;49.242;8.670;2023-04-24T09:04:06;1.50;;;0.90;;
47764;SDS011;33529;49.242;8.670;2023-04-24T09:06:36;1.38;;;0.77;;
47764;SDS011;33529;49.242;8.670;2023-04-24T09:09:03;2.28;;;0.98;;
47764;SDS011;33529;49.242;8.670;2023-04-24T09:11:31;0.93;;;0.50;;
47764;SDS011;33529;49.242;8.670;2023-04-24T09:14:01;1.13;;;0.70;;
47764;SDS011;33529;49.242;8.670;2023-04-24T09:16:31;1.42;;;0.80;;
47764;SDS011;33529;49.242;8.670;2023-04-24T09:19:01;1.35;;;0.82;;
47764;SDS011;33529;49.242;8.670;2023-04-24T09:21:32;1.00;;;0.80;;
47764;SDS011;33529;49.242;8.670;2023-04-24T09:24:00;1.38;;;0.70;;
47764;SDS011;33529;49.242;8.670;2023-04-24T09:26:30;1.02;;;0.57;;
47764;SDS011;33529;49.242;8.670;2023-04-24T09:29:00;1.83;;;0.90;;
47764;SDS011;33529;49.242;8.670;2023-04-24T09:31:27;1.63;;;1.00;;
47764;SDS011;33529;49.242;8.670;2023-04-24T09:34:03;1.42;;;0.82;;
47764;SDS011;33529;49.242;8.670;2023-04-24T09:36:34;1.50;;;0.95;;
47764;SDS011;33529;49.242;8.670;2023-04-24T09:39:05;1.13;;;0.70;;
47764;SDS011;33529;49.242;8.670;2023-04-24T09:41:34;1.20;;;0.80;;
47764;SDS011;33529;49.242;8.670;2023-04-24T09:44:14;2.33;;;0.90;;
47764;SDS011;33529;49.242;8.670;2023-04-24T09:46:43;2.25;;;1.13;;
47764;SDS011;33529;49.242;8.670;2023-04-24T09:49:14;2.28;;;1.10;;
47764;SDS011;33529;49.242;8.670;2023-04-24T09:51:42;2.72;;;1.00;;
47764;SDS011;33529;49.242;8.670;2023-04-24T09:54:19;2.50;;;1.30;;
47764;SDS011;33529;49.242;8.670;2023-04-24T09:56:48;2.38;;;1.20;;
47764;SDS011;33529;49.242;8.670;2023-04-24T09:59:17;2.78;;;1.70;;
47764;SDS011;33529;49.242;8.670;2023-04-24T10:01:45;2.78;;;1.25;;
47764;SDS011;33529;49.242;8.670;2023-04-24T10:04:15;2.08;;;1.27;;
47764;SDS011;33529;49.242;8.670;2023-04-24T10:06:44;2.00;;;1.17;;
47764;SDS011;33529;49.242;8.670;2023-04-24T10:09:12;2.17;;;1.17;;
47764;SDS011;33529;49.242;8.670;2023-04-24T10:11:43;3.65;;;1.65;;
47764;SDS011;33529;49.242;8.670;2023-04-24T10:14:14;2.15;;;1.38;;
47764;SDS011;33529;49.242;8.670;2023-04-24T10:16:42;2.25;;;1.08;;
47764;SDS011;33529;49.242;8.670;2023-04-24T10:19:10;2.08;;;1.25;;
47764;SDS011;33529;49.242;8.670;2023-04-24T10:21:39;2.05;;;1.10;;
47764;SDS011;33529;49.242;8.670;2023-04-24T10:24:15;2.53;;;1.27;;
47764;SDS011;33529;49.242;8.670;2023-04-24T10:26:43;2.22;;;1.42;;
47764;SDS011;33529;49.242;8.670;2023-04-24T10:29:12;3.05;;;1.70;;
47764;SDS011;33529;49.242;8.670;2023-04-24T10:31:39;3.42;;;1.60;;
47764;SDS011;33529;49.242;8.670;2023-04-24T10:34:07;3.33;;;1.48;;
47764;SDS011;33529;49.242;8.670;2023-04-24T10:36:36;3.05;;;1.80;;
47764;SDS011;33529;49.242;8.670;2023-04-24T10:39:09;3.03;;;1.38;;
47764;SDS011;33529;49.242;8.670;2023-04-24T10:41:38;2.55;;;1.45;;
47764;SDS011;33529;49.242;8.670;2023-04-24T10:46:33;3.15;;;1.70;;
47764;SDS011;33529;49.242;8.670;2023-04-24T10:49:03;2.80;;;1.60;;
47764;SDS011;33529;49.242;8.670;2023-04-24T10:54:21;2.25;;;1.27;;
47764;SDS011;33529;49.242;8.670;2023-04-24T10:59:45;3.08;;;2.08;;
47764;SDS011;33529;49.242;8.670;2023-04-24T11:02:16;2.88;;;1.60;;
47764;SDS011;33529;49.242;8.670;2023-04-24T11:04:44;3.10;;;1.90;;
47764;SDS011;33529;49.242;8.670;2023-04-24T11:07:11;3.42;;;1.88;;
47764;SDS011;33529;49.242;8.670;2023-04-24T11:09:38;3.10;;;1.90;;
47764;SDS011;33529;49.242;8.670;2023-04-24T11:12:09;2.97;;;1.90;;
47764;SDS011;33529;49.242;8.670;2023-04-24T11:17:34;2.92;;;1.65;;
47764;SDS011;33529;49.242;8.670;2023-04-24T11:20:08;4.53;;;2.17;;
47764;SDS011;33529;49.242;8.670;2023-04-24T11:22:54;4.53;;;2.10;;
47764;SDS011;33529;49.242;8.670;2023-04-24T11:25:22;3.55;;;1.98;;
47764;SDS011;33529;49.242;8.670;2023-04-24T11:27:49;3.60;;;1.90;;
47764;SDS011;33529;49.242;8.670;2023-04-24T11:30:17;2.92;;;1.45;;
47764;SDS011;33529;49.242;8.670;2023-04-24T11:32:50;2.38;;;1.45;;
47764;SDS011;33529;49.242;8.670;2023-04-24T11:35:18;2.85;;;1.30;;
47764;SDS011;33529;49.242;8.670;2023-04-24T11:37:54;2.97;;;1.65;;
47764;SDS011;33529;49.242;8.670;2023-04-24T11:40:41;3.75;;;1.48;;
47764;SDS011;33529;49.242;8.670;2023-04-24T11:43:08;3.50;;;1.67;;
47764;SDS011;33529;49.242;8.670;2023-04-24T11:45:36;2.80;;;1.30;;
47764;SDS011;33529;49.242;8.670;2023-04-24T11:48:03;2.10;;;1.30;;
47764;SDS011;33529;49.242;8.670;2023-04-24T11:50:30;3.17;;;1.70;;
47764;SDS011;33529;49.242;8.670;2023-04-24T11:52:57;2.10;;;1.05;;
47764;SDS011;33529;49.242;8.670;2023-04-24T11:55:27;2.67;;;1.70;;
47764;SDS011;33529;49.242;8.670;2023-04-24T11:57:56;1.83;;;1.20;;
47764;SDS011;33529;49.242;8.670;2023-04-24T12:00:26;2.63;;;1.63;;
47764;SDS011;33529;49.242;8.670;2023-04-24T12:03:10;2.85;;;1.63;;
47764;SDS011;33529;49.242;8.670;2023-04-24T12:05:38;3.00;;;1.58;;
47764;SDS011;33529;49.242;8.670;2023-04-24T12:08:06;5.90;;;2.10;;
47764;SDS011;33529;49.242;8.670;2023-04-24T12:10:34;3.20;;;1.40;;
47764;SDS011;33529;49.242;8.670;2023-04-24T12:13:02;2.78;;;1.67;;
47764;SDS011;33529;49.242;8.670;2023-04-24T12:15:29;3.05;;;1.67;;
47764;SDS011;33529;49.242;8.670;2023-04-24T12:17:56;4.13;;;1.70;;
47764;SDS011;33529;49.242;8.670;2023-04-24T12:20:27;3.30;;;1.60;;
47764;SDS011;33529;49.242;8.670;2023-04-24T12:22:56;3.15;;;2.08;;
47764;SDS011;33529;49.242;8.670;2023-04-24T12:25:27;3.53;;;1.77;;
47764;SDS011;33529;49.242;8.670;2023-04-24T12:30:32;2.67;;;1.27;;
47764;SDS011;33529;49.242;8.670;2023-04-24T12:33:01;3.15;;;1.98;;
47764;SDS011;33529;49.242;8.670;2023-04-24T12:35:30;2.85;;;1.50;;
47764;SDS011;33529;49.242;8.670;2023-04-24T12:38:09;3.45;;;1.70;;
47764;SDS011;33529;49.242;8.670;2023-04-24T12:40:38;4.45;;;1.88;;
47764;SDS011;33529;49.242;8.670;2023-04-24T12:43:17;3.10;;;1.58;;
47764;SDS011;33529;49.242;8.670;2023-04-24T12:45:45;2.65;;;1.45;;
47764;SDS011;33529;49.242;8.670;2023-04-24T12:48:13;2.95;;;1.55;;
47764;SDS011;33529;49.242;8.670;2023-04-24T12:50:40;3.55;;;1.58;;
47764;SDS011;33529;49.242;8.670;2023-04-24T12:53:13;2.05;;;1.40;;
47764;SDS011;33529;49.242;8.670;2023-04-24T12:55:40;3.90;;;1.20;;
47764;SDS011;33529;49.242;8.670;2023-04-24T12:58:07;3.28;;;1.55;;
47764;SDS011;33529;49.242;8.670;2023-04-24T13:00:34;1.85;;;1.20;;
47764;SDS011;33529;49.242;8.670;2023-04-24T13:03:01;3.13;;;1.63;;
47764;SDS011;33529;49.242;8.670;2023-04-24T13:05:29;3.25;;;1.60;;
47764;SDS011;33529;49.242;8.670;2023-04-24T13:07:57;2.20;;;1.20;;
47764;SDS011;33529;49.242;8.670;2023-04-24T13:10:24;2.42;;;1.33;;
47764;SDS011;33529;49.242;8.670;2023-04-24T13:12:50;2.70;;;1.52;;
47764;SDS011;33529;49.242;8.670;2023-04-24T13:15:17;3.42;;;1.67;;
47764;SDS011;33529;49.242;8.670;2023-04-24T13:17:44;3.75;;;1.70;;
47764;SDS011;33529;49.242;8.670;2023-04-24T13:20:11;5.10;;;2.53;;
47764;SDS011;33529;49.242;8.670;2023-04-24T13:22:39;3.28;;;1.40;;
47764;SDS011;33529;49.242;8.670;2023-04-24T13:25:07;2.80;;;1.63;;
47764;SDS011;33529;49.242;8.670;2023-04-24T13:27:34;3.22;;;1.73;;
47764;SDS011;33529;49.242;8.670;2023-04-24T13:30:01;2.25;;;1.25;;
47764;SDS011;33529;49.242;8.670;2023-04-24T13:32:30;3.10;;;1.33;;
47764;SDS011;33529;49.242;8.670;2023-04-24T13:34:58;2.95;;;1.52;;
47764;SDS011;33529;49.242;8.670;2023-04-24T13:37:24;2.42;;;1.73;;
47764;SDS011;33529;49.242;8.670;2023-04-24T13:39:51;2.30;;;1.10;;
47764;SDS011;33529;49.242;8.670;2023-04-24T13:42:18;3.53;;;1.40;;
47764;SDS011;33529;49.242;8.670;2023-04-24T13:44:46;3.05;;;1.40;;
47764;SDS011;33529;49.242;8.670;2023-04-24T13:47:13;2.38;;;1.30;;
47764;SDS011;33529;49.242;8.670;2023-04-24T13:49:39;2.58;;;1.63;;
47764;SDS011;33529;49.242;8.670;2023-04-24T13:52:06;3.28;;;1.70;;
47764;SDS011;33529;49.242;8.670;2023-04-24T13:54:33;2.83;;;1.35;;
47764;SDS011;33529;49.242;8.670;2023-04-24T13:57:00;2.63;;;1.52;;
47764;SDS011;33529;49.242;8.670;2023-04-24T13:59:29;1.85;;;1.30;;
47764;SDS011;33529;49.242;8.670;2023-04-24T14:01:55;2.95;;;1.30;;
47764;SDS011;33529;49.242;8.670;2023-04-24T14:04:22;3.72;;;1.75;;
47764;SDS011;33529;49.242;8.670;2023-04-24T14:06:50;3.78;;;1.80;;
47764;SDS011;33529;49.242;8.670;2023-04-24T14:09:17;2.30;;;1.52;;
47764;SDS011;33529;49.242;8.670;2023-04-24T14:11:44;2.65;;;1.38;;
47764;SDS011;33529;49.242;8.670;2023-04-24T14:14:11;2.60;;;1.48;;
47764;SDS011;33529;49.242;8.670;2023-04-24T14:16:38;3.28;;;1.73;;
47764;SDS011;33529;49.242;8.670;2023-04-24T14:19:05;3.45;;;1.50;;
47764;SDS011;33529;49.242;8.670;2023-04-24T14:21:32;2.55;;;1.40;;
47764;SDS011;33529;49.242;8.670;2023-04-24T14:23:59;3.90;;;1.30;;
47764;SDS011;33529;49.242;8.670;2023-04-24T14:26:27;3.45;;;1.30;;
47764;SDS011;33529;49.242;8.670;2023-04-24T14:28:53;2.67;;;1.30;;
47764;SDS011;33529;49.242;8.670;2023-04-24T14:31:36;2.60;;;1.45;;
47764;SDS011;33529;49.242;8.670;2023-04-24T14:34:03;2.58;;;1.30;;
47764;SDS011;33529;49.242;8.670;2023-04-24T14:36:30;2.28;;;1.08;;
47764;SDS011;33529;49.242;8.670;2023-04-24T14:38:58;2.78;;;1.42;;
47764;SDS011;33529;49.242;8.670;2023-04-24T14:41:25;2.78;;;1.25;;
47764;SDS011;33529;49.242;8.670;2023-04-24T14:43:52;2.55;;;1.15;;
47764;SDS011;33529;49.242;8.670;2023-04-24T14:46:19;2.17;;;1.27;;
47764;SDS011;33529;49.242;8.670;2023-04-24T14:48:46;2.63;;;1.23;;
47764;SDS011;33529;49.242;8.670;2023-04-24T14:51:13;2.08;;;1.15;;
47764;SDS011;33529;49.242;8.670;2023-04-24T14:53:40;2.70;;;1.38;;
47764;SDS011;33529;49.242;8.670;2023-04-24T14:56:07;3.00;;;1.50;;
47764;SDS011;33529;49.242;8.670;2023-04-24T14:58:34;3.95;;;1.60;;
47764;SDS011;33529;49.242;8.670;2023-04-24T15:01:01;2.55;;;1.48;;
47764;SDS011;33529;49.242;8.670;2023-04-24T15:03:28;2.80;;;1.50;;
47764;SDS011;33529;49.242;8.670;2023-04-24T15:05:56;3.17;;;1.60;;
47764;SDS011;33529;49.242;8.670;2023-04-24T15:08:23;2.40;;;1.40;;
47764;SDS011;33529;49.242;8.670;2023-04-24T15:10:50;2.25;;;1.38;;